createdAt,value
2023-02-27T00:26:55.956Z,28.44
2023-02-27T00:27:55.998Z,27.50
2023-02-27T00:28:56.022Z,29.16
2023-02-27T00:29:56.060Z,26.78
2023-02-27T00:30:56.131Z,28.55
2023-02-27T00:31:56.311Z,32.45
2023-02-27T00:32:56.170Z,30.93
2023-02-27T00:33:56.258Z,31.07
2023-02-27T00:34:56.242Z,32.50
2023-02-27T00:35:56.281Z,29.25
2023-02-27T00:36:56.337Z,30.99
2023-02-27T00:37:56.352Z,30.42
2023-02-27T00:38:56.384Z,31.40
2023-02-27T00:39:56.433Z,32.08
2023-02-27T00:40:56.461Z,28.40
2023-02-27T00:41:56.515Z,25.00
2023-02-27T00:42:56.562Z,30.11
2023-02-27T00:43:56.582Z,29.62
2023-02-27T00:44:56.627Z,31.98
2023-02-27T00:45:56.662Z,29.21
2023-02-27T00:46:56.827Z,26.56
2023-02-27T00:51:56.877Z,28.99
2023-02-27T00:52:56.954Z,28.23
2023-02-27T00:53:56.959Z,26.82
2023-02-27T00:54:56.999Z,29.63
2023-02-27T00:55:57.055Z,28.58
2023-02-27T00:56:57.084Z,32.00
2023-02-27T00:57:57.130Z,31.35
2023-02-27T00:58:57.157Z,30.98
2023-02-27T00:59:57.190Z,31.71
2023-02-27T01:00:57.259Z,27.98
2023-02-27T01:01:57.257Z,30.64
2023-02-27T01:02:57.313Z,30.94
2023-02-27T01:03:57.334Z,28.47
2023-02-27T01:04:57.375Z,28.51
2023-02-27T01:05:57.411Z,32.11
2023-02-27T01:06:57.460Z,30.61
2023-02-27T01:07:57.490Z,29.60
2023-02-27T01:08:57.580Z,29.89
2023-02-27T01:09:57.555Z,30.71
2023-02-27T01:10:57.592Z,28.80
2023-02-27T01:11:57.722Z,28.94
2023-02-27T01:12:57.669Z,32.36
2023-02-27T01:13:58.234Z,32.64
2023-02-27T01:14:57.752Z,29.73
2023-02-27T01:15:57.871Z,26.14
2023-02-27T01:16:57.829Z,29.33
2023-02-27T01:17:57.873Z,32.18
2023-02-27T01:18:57.900Z,30.39
2023-02-27T01:19:57.941Z,27.91
2023-02-27T01:20:57.987Z,27.83
2023-02-27T01:21:58.022Z,28.19
2023-02-27T01:22:58.074Z,30.63
2023-02-27T01:23:58.096Z,30.05
2023-02-27T01:24:58.140Z,29.01
2023-02-27T01:25:58.184Z,29.41
2023-02-27T01:26:58.216Z,32.58
2023-02-27T01:27:58.253Z,29.79
2023-02-27T01:28:58.266Z,28.35
2023-02-27T01:29:58.311Z,32.05
2023-02-27T01:30:58.360Z,30.08
2023-02-27T01:31:58.491Z,28.70
2023-02-27T01:32:58.376Z,30.29
2023-02-27T01:33:58.400Z,29.96
2023-02-27T01:34:58.428Z,32.16
2023-02-27T01:35:58.469Z,28.70
2023-02-27T01:36:59.247Z,30.54
2023-02-27T01:37:58.521Z,31.49
2023-02-27T01:38:58.534Z,28.52
2023-02-27T01:39:58.640Z,29.96
2023-02-27T01:40:58.589Z,30.70
2023-02-27T01:41:58.637Z,31.21
2023-02-27T01:42:58.640Z,30.02
2023-02-27T01:43:58.657Z,29.94
2023-02-27T01:44:58.739Z,33.52
2023-02-27T01:45:58.743Z,27.93
2023-02-27T01:46:58.711Z,32.13
2023-02-27T01:47:58.725Z,30.82
2023-02-27T01:48:58.742Z,31.14
2023-02-27T01:49:58.753Z,32.97
2023-02-27T01:50:58.772Z,33.74
2023-02-27T01:51:58.781Z,30.22
2023-02-27T01:52:58.803Z,29.65
2023-02-27T01:53:58.814Z,28.29
2023-02-27T01:54:58.833Z,27.89
2023-02-27T01:55:59.276Z,32.24
2023-02-27T01:56:58.864Z,29.47
2023-02-27T01:57:58.867Z,29.63
2023-02-27T01:58:58.892Z,31.52
2023-02-27T01:59:58.903Z,31.38
2023-02-27T02:00:58.940Z,29.92
2023-02-27T02:01:58.971Z,31.05
2023-02-27T02:02:58.949Z,29.32
2023-02-27T02:03:58.969Z,29.19
2023-02-27T02:04:59.755Z,30.91
2023-02-27T02:05:58.991Z,32.46
2023-02-27T02:06:59.772Z,30.60
2023-02-27T02:07:59.008Z,31.83
2023-02-27T02:08:59.761Z,30.09
2023-02-27T02:09:59.041Z,35.40
2023-02-27T02:10:59.046Z,29.18
2023-02-27T02:11:59.073Z,29.03
2023-02-27T02:12:59.073Z,29.61
2023-02-27T02:13:59.082Z,28.45
2023-02-27T02:14:59.081Z,30.45
2023-02-27T02:15:59.121Z,29.51
2023-02-27T02:16:59.137Z,31.34
2023-02-27T02:17:59.129Z,31.33
2023-02-27T02:18:59.144Z,31.92
2023-02-27T02:19:59.146Z,28.94
2023-02-27T02:20:59.162Z,32.33
2023-02-27T02:21:59.156Z,30.03
2023-02-27T02:22:59.167Z,31.66
2023-02-27T02:23:59.181Z,30.48
2023-02-27T02:24:59.195Z,30.33
2023-02-27T02:25:59.198Z,29.95
2023-02-27T02:26:59.211Z,30.77
2023-02-27T02:27:59.211Z,28.83
2023-02-27T02:28:59.230Z,29.18
2023-02-27T02:29:59.231Z,27.24
2023-02-27T02:30:59.302Z,29.52
2023-02-27T02:31:59.382Z,31.92
2023-02-27T02:32:59.263Z,29.47
2023-02-27T02:33:59.268Z,29.45
2023-02-27T02:34:59.271Z,30.78
2023-02-27T02:35:59.284Z,30.18
2023-02-27T02:36:59.300Z,31.88
2023-02-27T02:37:59.303Z,28.03
2023-02-27T02:38:59.310Z,28.97
2023-02-27T02:39:59.298Z,31.18
2023-02-27T02:40:59.315Z,26.53
2023-02-27T02:41:59.311Z,29.91
2023-02-27T02:42:59.317Z,29.40
2023-02-27T02:43:59.333Z,29.24
2023-02-27T02:44:59.378Z,27.10
2023-02-27T02:45:59.347Z,28.59
2023-02-27T02:46:59.326Z,31.54
2023-02-27T02:47:59.331Z,29.95
2023-02-27T02:48:59.328Z,30.36
2023-02-27T02:49:59.329Z,29.80
2023-02-27T02:50:59.352Z,32.73
2023-02-27T02:51:59.351Z,31.16
2023-02-27T02:53:00.290Z,29.92
2023-02-27T02:53:59.350Z,28.16
2023-02-27T02:54:59.340Z,31.01
2023-02-27T02:55:59.344Z,28.35
2023-02-27T02:56:59.338Z,32.27
2023-02-27T02:57:59.349Z,31.12
2023-02-27T02:58:59.338Z,28.97
2023-02-27T02:59:59.339Z,29.64
2023-02-27T03:00:59.339Z,28.41
2023-02-27T03:02:00.279Z,31.52
2023-02-27T03:02:59.353Z,28.30
2023-02-27T03:03:59.339Z,29.96
2023-02-27T03:04:59.359Z,28.93
2023-02-27T03:05:59.342Z,32.26
2023-02-27T03:06:59.363Z,31.85
2023-02-27T03:07:59.350Z,31.04
2023-02-27T03:08:59.351Z,30.24
2023-02-27T03:09:59.344Z,29.92
2023-02-27T03:10:59.345Z,32.76
2023-02-27T03:11:59.343Z,30.65
2023-02-27T03:12:59.724Z,30.02
2023-02-27T03:13:59.346Z,30.16
2023-02-27T03:14:59.351Z,30.10
2023-02-27T03:16:00.388Z,29.81
2023-02-27T03:16:59.327Z,29.37
2023-02-27T03:17:59.340Z,30.19
2023-02-27T03:18:59.331Z,26.79
2023-02-27T03:19:59.336Z,33.58
2023-02-27T03:20:59.321Z,30.76
2023-02-27T03:21:59.322Z,31.69
2023-02-27T03:22:59.310Z,30.29
2023-02-27T03:23:59.311Z,28.10
2023-02-27T03:24:59.302Z,31.64
2023-02-27T03:25:59.280Z,29.20
2023-02-27T03:26:59.285Z,29.09
2023-02-27T03:27:59.281Z,28.66
2023-02-27T03:28:59.293Z,29.57
2023-02-27T03:29:59.282Z,31.43
2023-02-27T03:30:59.335Z,30.55
2023-02-27T03:31:59.364Z,29.01
2023-02-27T03:32:59.261Z,29.36
2023-02-27T03:34:01.120Z,30.81
2023-02-27T03:34:59.335Z,30.03
2023-02-27T03:35:59.246Z,27.01
2023-02-27T03:36:59.240Z,25.55
2023-02-27T03:37:59.235Z,28.91
2023-02-27T03:38:59.234Z,31.03
2023-02-27T03:39:59.266Z,26.38
2023-02-27T03:40:59.232Z,27.12
2023-02-27T03:41:59.228Z,32.06
2023-02-27T03:42:59.225Z,29.36
2023-02-27T03:43:59.222Z,31.72
2023-02-27T03:44:59.219Z,29.66
2023-02-27T03:45:59.220Z,26.20
2023-02-27T03:46:59.221Z,29.43
2023-02-27T03:47:59.222Z,28.77
2023-02-27T03:48:59.218Z,30.77
2023-02-27T03:49:59.231Z,27.55
2023-02-27T03:50:59.223Z,31.90
2023-02-27T03:51:59.212Z,29.13
2023-02-27T03:52:59.302Z,29.57
2023-02-27T03:53:59.315Z,28.63
2023-02-27T03:54:59.236Z,26.62
2023-02-27T03:55:59.242Z,28.90
2023-02-27T03:56:59.294Z,27.00
2023-02-27T03:57:59.227Z,31.25
2023-02-27T03:58:59.266Z,29.37
2023-02-27T03:59:59.233Z,29.44
2023-02-27T04:00:59.227Z,29.91
2023-02-27T04:01:59.266Z,28.03
2023-02-27T04:02:59.246Z,30.42
2023-02-27T04:03:59.215Z,32.35
2023-02-27T04:04:59.222Z,30.15
2023-02-27T04:05:59.229Z,30.62
2023-02-27T04:06:59.224Z,34.13
2023-02-27T04:07:59.216Z,31.99
2023-02-27T04:08:59.227Z,28.47
2023-02-27T04:09:59.233Z,30.67
2023-02-27T04:10:59.220Z,28.11
2023-02-27T04:11:59.220Z,30.90
2023-02-27T04:12:59.203Z,29.02
2023-02-27T04:13:59.208Z,29.77
2023-02-27T04:14:59.202Z,31.31
2023-02-27T04:15:59.222Z,28.69
2023-02-27T04:16:59.196Z,30.68
2023-02-27T04:17:59.194Z,28.57
2023-02-27T04:18:59.195Z,29.92
2023-02-27T04:19:59.189Z,30.16
2023-02-27T04:20:59.171Z,30.83
2023-02-27T04:21:59.151Z,32.31
2023-02-27T04:22:59.163Z,28.83
2023-02-27T04:23:59.156Z,31.25
2023-02-27T04:24:59.152Z,29.34
2023-02-27T05:07:59.003Z,30.90
2023-02-27T05:09:59.009Z,30.00
2023-02-27T05:10:59.001Z,31.23
2023-02-27T05:11:58.977Z,27.26
2023-02-27T05:12:58.969Z,33.11
2023-02-27T05:13:58.973Z,28.43
2023-02-27T05:14:58.964Z,31.09
2023-02-27T05:15:59.072Z,27.65
2023-02-27T05:16:58.958Z,26.25
2023-02-27T05:17:59.024Z,27.08
2023-02-27T05:18:58.936Z,28.93
2023-02-27T05:19:58.925Z,31.04
2023-02-27T05:20:58.931Z,28.57
2023-02-27T05:21:58.922Z,30.97
2023-02-27T05:22:58.915Z,30.33
2023-02-27T05:23:58.922Z,28.83
2023-02-27T05:24:58.906Z,28.73
2023-02-27T05:25:59.894Z,29.76
2023-02-27T05:26:58.977Z,25.93
2023-02-27T05:27:58.874Z,28.47
2023-02-27T05:28:58.873Z,31.71
2023-02-27T05:29:58.886Z,32.28
2023-02-27T05:30:58.917Z,30.99
2023-02-27T05:31:58.984Z,30.02
2023-02-27T05:32:58.912Z,27.72
2023-02-27T05:33:58.857Z,29.61
2023-02-27T05:34:58.839Z,30.38
2023-02-27T05:35:58.850Z,28.06
2023-02-27T06:25:58.512Z,34.07
2023-02-27T06:48:57.967Z,37.11
2023-02-27T06:49:57.936Z,36.15
2023-02-27T06:50:57.905Z,39.30
2023-02-27T06:51:57.881Z,40.38
2023-02-27T06:52:57.843Z,38.92
2023-02-27T06:53:57.818Z,37.64
2023-02-27T06:54:57.790Z,37.20
2023-02-27T06:55:57.761Z,37.97
2023-02-27T06:56:57.738Z,40.76
2023-02-27T06:57:57.705Z,40.51
2023-02-27T06:58:59.522Z,36.85
2023-02-27T06:59:57.649Z,38.35
2023-02-27T07:00:57.618Z,38.55
2023-02-27T07:01:57.595Z,41.03
2023-02-27T07:02:57.558Z,39.50
2023-02-27T07:03:57.528Z,43.13
2023-02-27T07:04:59.361Z,39.86
2023-02-27T07:05:58.369Z,39.61
2023-02-27T07:46:56.863Z,38.57
2023-02-27T07:52:56.788Z,39.75
2023-02-27T07:53:56.764Z,43.75
2023-02-27T07:54:56.735Z,41.64
2023-02-27T07:55:56.880Z,42.18
2023-02-27T07:56:56.717Z,41.72
2023-02-27T07:57:56.700Z,41.38
2023-02-27T07:58:56.706Z,39.19
2023-02-27T07:59:56.668Z,38.22
2023-02-27T08:08:56.530Z,39.17
2023-02-27T08:14:56.430Z,42.88
2023-02-27T08:23:56.307Z,42.07
2023-02-27T08:24:56.289Z,42.09
2023-02-27T08:25:56.268Z,47.28
2023-02-27T08:26:56.253Z,49.91
2023-02-27T08:27:56.248Z,51.62
2023-02-27T08:28:56.280Z,65.41
2023-02-27T08:29:56.270Z,71.44
2023-02-27T08:30:56.320Z,79.62
2023-02-27T08:31:56.479Z,81.92
2023-02-27T08:32:56.379Z,92.97
2023-02-27T08:34:04.580Z,101.68
2023-02-27T08:36:56.332Z,111.31
2023-02-27T08:37:56.298Z,126.21
2023-02-27T08:38:56.267Z,153.22
2023-02-27T08:39:56.234Z,158.37
2023-02-27T08:40:56.221Z,166.36
2023-02-27T08:41:56.173Z,170.53
2023-02-27T08:42:56.145Z,174.92
2023-02-27T08:43:56.105Z,181.53
2023-02-27T08:44:56.072Z,188.83
2023-02-27T08:45:56.145Z,200.21
2023-02-27T08:46:56.015Z,202.04
2023-02-27T08:47:55.993Z,203.65
2023-02-27T08:48:55.984Z,210.88
2023-02-27T08:49:56.919Z,218.20
2023-02-27T08:50:57.857Z,221.67
2023-02-27T08:51:55.944Z,229.96
2023-02-27T08:52:55.939Z,231.39
2023-02-27T09:08:56.391Z,249.13
2023-02-27T09:26:55.933Z,153.93
2023-02-27T09:27:56.910Z,155.97
2023-02-27T09:28:56.825Z,157.34
2023-02-27T09:29:55.982Z,161.89
2023-02-27T09:30:55.994Z,163.51
2023-02-27T09:31:56.110Z,167.08
2023-02-27T09:32:56.033Z,169.69
2023-02-27T09:33:56.050Z,173.64
2023-02-27T09:34:55.965Z,177.36
2023-02-27T09:35:56.011Z,182.67
2023-02-27T09:36:55.940Z,190.75
2023-02-27T09:43:56.761Z,213.38
2023-02-27T10:20:56.431Z,248.30
2023-02-27T10:23:55.927Z,248.06
2023-02-27T10:24:56.850Z,246.80
2023-02-27T10:25:56.845Z,248.49
2023-02-27T10:26:55.966Z,245.61
2023-02-27T10:27:55.942Z,247.09
2023-02-27T10:28:58.924Z,243.72
2023-02-27T10:32:56.443Z,239.55
2023-02-27T10:54:55.930Z,235.57
2023-02-27T11:46:18.070Z,206.90
2023-02-27T11:46:55.952Z,207.04
2023-02-27T14:27:57.138Z,147.54
2023-02-27T14:33:56.502Z,146.67
2023-02-27T14:36:55.941Z,146.05
2023-02-27T14:38:55.951Z,144.42
2023-02-27T14:43:56.497Z,142.66
2023-02-27T14:48:56.513Z,139.49
2023-02-27T15:08:56.028Z,137.31
2023-02-27T18:17:53.274Z,107.48
2023-02-27T18:18:54.142Z,105.94
2023-02-27T18:19:53.279Z,107.11
2023-02-27T18:20:53.283Z,105.83
2023-02-27T18:21:53.361Z,104.10
2023-02-27T18:22:53.280Z,103.73
2023-02-27T19:16:53.617Z,91.30
2023-02-27T19:17:53.641Z,91.95
2023-02-27T19:18:53.648Z,90.57
2023-02-27T19:19:53.666Z,91.75
2023-02-27T19:20:54.848Z,90.02
2023-02-27T19:21:53.692Z,91.19
2023-02-27T19:22:53.700Z,92.55
2023-02-27T19:23:53.718Z,90.56
2023-02-27T19:24:53.742Z,88.05
2023-02-27T19:25:53.824Z,91.49
2023-02-27T19:26:53.780Z,90.89
2023-02-27T19:27:53.762Z,89.26
2023-02-27T19:28:53.921Z,87.54
2023-02-27T19:29:53.792Z,88.11
2023-02-27T19:30:53.796Z,88.51
2023-02-27T19:31:53.842Z,86.37
2023-02-27T19:32:53.834Z,86.86
2023-02-27T19:33:53.837Z,88.58
2023-02-27T19:34:53.855Z,85.45
2023-02-27T19:35:53.959Z,87.78
2023-02-27T19:36:53.879Z,87.55
2023-02-27T19:37:53.885Z,88.77
2023-02-27T19:38:53.902Z,86.66
2023-02-27T19:39:54.616Z,88.88
2023-02-27T19:40:53.924Z,86.81
2023-02-27T19:41:53.948Z,86.98
2023-02-27T19:42:53.960Z,85.08
2023-02-27T19:43:53.962Z,86.29
2023-02-27T19:44:53.977Z,86.76
2023-02-27T19:45:54.099Z,85.16
2023-02-27T19:46:54.054Z,85.71
2023-02-27T19:47:54.015Z,85.83
2023-02-27T19:48:54.035Z,86.78
2023-02-27T19:49:54.055Z,87.33
2023-02-27T19:50:54.072Z,86.42
2023-02-27T19:51:54.090Z,85.99
2023-02-27T19:52:54.092Z,85.43
2023-02-27T19:53:54.115Z,85.54
2023-02-27T19:54:54.126Z,85.01
2023-02-27T19:55:55.126Z,84.69
2023-02-27T19:56:54.168Z,85.80
2023-02-27T19:57:54.167Z,82.99
2023-02-27T19:58:54.185Z,84.17
2023-02-27T19:59:54.199Z,85.03
2023-02-27T20:00:54.280Z,84.93
2023-02-27T20:01:54.228Z,84.45
2023-02-27T20:02:54.241Z,85.39
2023-02-27T20:03:54.281Z,85.29
2023-02-27T20:04:54.332Z,82.21
2023-02-27T20:05:54.299Z,81.77
2023-02-27T20:06:54.323Z,82.89
2023-02-27T20:07:54.336Z,81.56
2023-02-27T20:08:54.357Z,79.67
2023-02-27T20:09:54.386Z,80.61
2023-02-27T20:10:55.387Z,79.48
2023-02-27T21:55:55.930Z,62.79
2023-02-27T21:56:55.950Z,63.35
2023-02-27T21:57:55.981Z,62.09
2023-02-27T21:58:56.000Z,63.57
2023-02-27T21:59:56.024Z,65.20
2023-02-27T22:00:56.057Z,61.33
2023-02-27T22:01:56.152Z,61.69
2023-02-27T22:02:56.151Z,63.01
2023-02-27T22:03:56.132Z,61.72
2023-02-27T22:04:56.147Z,62.22
2023-02-27T22:05:56.174Z,61.07
2023-02-27T22:06:56.196Z,62.04
2023-02-27T22:07:56.223Z,60.02
2023-02-27T22:08:56.284Z,61.52
2023-02-27T22:09:56.276Z,61.04
2023-02-27T22:10:56.300Z,62.77
2023-02-27T22:11:56.391Z,63.52
2023-02-27T22:12:56.367Z,61.50
2023-02-27T22:22:56.635Z,59.67
2023-02-27T22:23:56.685Z,62.40
2023-02-27T22:24:56.696Z,61.12
2023-02-27T22:25:56.728Z,60.98
2023-02-27T22:26:56.751Z,63.66
2023-02-27T22:27:56.795Z,61.93
2023-02-27T22:28:56.802Z,62.51
2023-02-27T22:29:56.835Z,61.95
2023-02-27T22:30:56.904Z,63.08
2023-02-27T22:32:56.921Z,61.45
2023-02-27T22:33:56.945Z,62.01
2023-02-27T22:34:56.957Z,63.52
2023-02-27T22:35:57.077Z,60.83
2023-02-27T22:36:57.009Z,59.85
2023-02-27T22:37:57.048Z,62.89
2023-02-27T22:38:57.061Z,61.17
2023-02-27T22:39:57.086Z,60.96
2023-02-27T22:40:57.202Z,63.00
2023-02-27T22:41:57.139Z,60.54
2023-02-27T22:42:57.166Z,60.50
2023-02-27T22:43:57.195Z,61.18
2023-02-27T22:44:57.220Z,63.18
2023-02-27T22:45:57.250Z,62.54
2023-02-27T22:46:57.313Z,60.78
2023-02-27T22:47:58.168Z,63.57
2023-02-27T22:48:57.342Z,62.74
2023-02-27T22:49:57.354Z,63.89
2023-02-27T22:50:57.385Z,65.31
2023-02-27T22:51:57.474Z,63.47
2023-02-27T22:52:57.443Z,66.43
2023-02-27T22:53:57.497Z,65.38
2023-02-27T22:54:57.500Z,63.25
2023-02-27T22:55:57.600Z,63.05
2023-02-27T22:56:58.205Z,63.47
2023-02-27T22:57:57.600Z,64.06
2023-02-27T22:58:57.639Z,65.06
2023-02-27T22:59:57.662Z,63.60
2023-02-27T23:00:57.686Z,63.83
2023-02-27T23:01:57.745Z,62.79
2023-02-27T23:02:58.677Z,63.42
2023-02-27T23:03:57.836Z,61.98
2023-02-27T23:04:57.791Z,62.10
2023-02-27T23:05:57.837Z,64.32
2023-02-27T23:06:57.852Z,63.20
2023-02-27T23:07:57.879Z,62.26
2023-02-27T23:08:57.912Z,61.53
2023-02-27T23:09:57.947Z,60.63
2023-02-27T23:10:57.977Z,61.60
2023-02-27T23:11:58.004Z,60.51
2023-02-27T23:12:58.028Z,59.57
2023-02-27T23:13:58.068Z,59.56
2023-02-27T23:14:58.123Z,61.07
2023-02-27T23:15:58.120Z,62.43
2023-02-27T23:16:58.133Z,60.95
2023-02-27T23:17:58.773Z,65.38
2023-02-27T23:18:58.225Z,59.68
2023-02-27T23:19:58.218Z,60.84
2023-02-27T23:20:58.232Z,62.41
2023-02-27T23:21:58.283Z,63.63
2023-02-27T23:22:58.304Z,61.53
2023-02-27T23:23:58.349Z,63.27
2023-02-27T23:24:58.375Z,63.44
2023-02-27T23:26:00.191Z,64.06
2023-02-27T23:26:58.364Z,63.38
2023-02-27T23:27:58.340Z,61.90
2023-02-27T23:28:58.318Z,61.55
2023-02-27T23:29:58.318Z,61.99
2023-02-27T23:30:58.269Z,62.78
2023-02-27T23:31:58.338Z,61.72
2023-02-27T23:32:58.215Z,58.62
2023-02-27T23:33:58.257Z,59.46
2023-02-27T23:34:58.230Z,57.22
2023-02-27T23:35:58.202Z,60.18
2023-02-27T23:36:58.102Z,61.35
2023-02-27T23:37:58.079Z,59.43
2023-02-27T23:38:59.236Z,62.61
2023-02-27T23:39:58.023Z,61.76
2023-02-27T23:40:58.008Z,58.32
2023-02-27T23:41:57.985Z,62.09
2023-02-27T23:42:57.956Z,58.95
2023-02-27T23:43:57.935Z,59.75
2023-02-27T23:44:57.902Z,58.68
2023-02-27T23:59:57.582Z,56.18
